2020/05/30 02:30 VVNB 300230Z VRB02KT 9999 FEW021 32/25 Q1008 NOSIG
2020/05/30 02:30 VVDN 300230Z 17001KT 9999 FEW015 35/24 Q1012 NOSIG
2020/05/30 02:30 VVTS 300230Z 31005KT 260V360 9999 SCT017 FEW020TCU 31/26 Q1012 NOSIG
2020/05/30 02:30 VVPB 300230Z 25004KT 9999 FEW020 SCT100 33/25 Q1012 NOSIG

Powered by MinhViet JSC.